Time;durP1;ratioP1;P1;durP2;ratioP2;P2;SDS_P1;SDS_P2;PMS_P1;PMS_P2;Temp;Humidity;BMP_temperature;BMP_pressure;BME280_temperature;BME280_humidity;BME280_pressure;Samples;Min_cycle;Max_cycle;Signal;HPM_P1;HPM_P2
2021/06/06 00:00:20;;;;;;;;;19.00;18.75;;;;;;;;3724680;38;19745;-66
2021/06/06 00:02:46;;;;;;;;;18.00;17.50;;;;;;;;3724447;38;19780;-66
2021/06/06 00:05:13;;;;;;;;;16.00;16.00;;;;;;;;3725043;38;19758;-67
2021/06/06 00:07:39;;;;;;;;;20.25;20.25;;;;;;;;3725164;37;19762;-67
2021/06/06 00:10:07;;;;;;;;;18.00;18.00;;;;;;;;3725225;38;19731;-66
2021/06/06 00:12:34;;;;;;;;;14.50;14.50;;;;;;;;3725027;37;19751;-66
2021/06/06 00:15:01;;;;;;;;;15.50;15.50;;;;;;;;3725253;38;19748;-66
2021/06/06 00:17:28;;;;;;;;;14.00;13.75;;;;;;;;3725142;37;19727;-66
2021/06/06 00:19:54;;;;;;;;;17.75;17.00;;;;;;;;3725071;37;19753;-66
2021/06/06 00:22:20;;;;;;;;;17.75;16.75;;;;;;;;3725387;37;19762;-67
2021/06/06 00:24:46;;;;;;;;;16.75;16.75;;;;;;;;3725395;37;17556;-67
2021/06/06 00:27:14;;;;;;;;;15.00;14.50;;;;;;;;3725578;38;17533;-66
2021/06/06 00:29:40;;;;;;;;;16.75;16.75;;;;;;;;3725276;37;19819;-65
2021/06/06 00:32:07;;;;;;;;;15.25;15.25;;;;;;;;3725348;38;17533;-68
2021/06/06 00:34:33;;;;;;;;;16.50;16.25;;;;;;;;3726109;37;17541;-66
2021/06/06 00:37:04;;;;;;;;;16.75;16.75;;;;;;;;3724965;38;19706;-66
2021/06/06 00:39:30;;;;;;;;;18.75;18.50;;;;;;;;3725176;38;19733;-66
2021/06/06 00:42:05;;;;;;;;;15.25;15.25;;;;;;;;3726469;37;19714;-67
2021/06/06 00:44:33;;;;;;;;;14.75;14.75;;;;;;;;3727520;38;19708;-65
2021/06/06 00:46:59;;;;;;;;;16.50;16.25;;;;;;;;3725026;38;19663;-66
2021/06/06 00:49:26;;;;;;;;;17.25;17.25;;;;;;;;3725089;38;19694;-64
2021/06/06 00:51:54;;;;;;;;;16.75;16.75;;;;;;;;3725354;37;18495;-65
2021/06/06 00:54:29;;;;;;;;;17.50;17.50;;;;;;;;3725030;37;20679;-65
2021/06/06 00:57:06;;;;;;;;;19.75;19.75;;;;;;;;3725165;37;20683;-67
2021/06/06 00:59:36;;;;;;;;;16.00;16.00;;;;;;;;3725230;38;20680;-65
2021/06/06 01:02:02;;;;;;;;;15.75;15.75;;;;;;;;3725480;38;19692;-66
2021/06/06 01:04:28;;;;;;;;;16.75;16.75;;;;;;;;3725049;37;19697;-65
2021/06/06 01:06:55;;;;;;;;;16.25;15.25;;;;;;;;3724763;38;19707;-66
2021/06/06 01:09:23;;;;;;;;;13.75;13.25;;;;;;;;3724720;38;18467;-66
2021/06/06 01:11:56;;;;;;;;;16.75;16.75;;;;;;;;3725006;37;20681;-64
2021/06/06 01:14:38;;;;;;;;;16.25;14.75;;;;;;;;3724870;38;20782;-66
2021/06/06 01:17:08;;;;;;;;;14.75;14.75;;;;;;;;3725091;37;20657;-64
2021/06/06 01:19:53;;;;;;;;;16.50;16.00;;;;;;;;3724972;38;20665;-66
2021/06/06 01:22:28;;;;;;;;;17.75;17.75;;;;;;;;3725095;38;20681;-65
2021/06/06 01:25:00;;;;;;;;;17.00;17.00;;;;;;;;3724997;38;20647;-67
2021/06/06 01:27:28;;;;;;;;;17.00;17.00;;;;;;;;3725121;38;20653;-65
2021/06/06 01:30:01;;;;;;;;;17.00;17.00;;;;;;;;3724948;37;20644;-65
2021/06/06 01:32:48;;;;;;;;;13.00;13.00;;;;;;;;3724895;38;20649;-66
2021/06/06 01:35:22;;;;;;;;;17.25;17.25;;;;;;;;3724812;38;20639;-65
2021/06/06 01:37:51;;;;;;;;;10.75;10.25;;;;;;;;3725041;38;20649;-66
2021/06/06 01:40:21;;;;;;;;;17.75;17.50;;;;;;;;3725030;38;20622;-66
2021/06/06 01:42:52;;;;;;;;;14.25;14.25;;;;;;;;3724758;37;20657;-65
2021/06/06 01:45:22;;;;;;;;;15.00;15.00;;;;;;;;3724560;37;20631;-64
2021/06/06 01:47:51;;;;;;;;;18.00;18.00;;;;;;;;3724830;37;20639;-66
2021/06/06 01:50:27;;;;;;;;;17.75;16.25;;;;;;;;3724645;37;20642;-64
2021/06/06 01:52:53;;;;;;;;;14.50;13.50;;;;;;;;3724614;38;20611;-64
2021/06/06 01:55:24;;;;;;;;;13.75;13.75;;;;;;;;3724985;38;20622;-65
2021/06/06 01:57:54;;;;;;;;;14.75;14.75;;;;;;;;3724733;38;20601;-65
2021/06/06 02:00:29;;;;;;;;;14.50;13.25;;;;;;;;3724667;37;20618;-65
2021/06/06 02:02:58;;;;;;;;;13.75;13.75;;;;;;;;3724686;38;20606;-64
2021/06/06 02:05:24;;;;;;;;;14.25;13.75;;;;;;;;3725210;38;20589;-66
2021/06/06 02:07:52;;;;;;;;;18.00;16.50;;;;;;;;3725160;37;18419;-64
2021/06/06 02:10:25;;;;;;;;;15.00;15.00;;;;;;;;3725000;37;20750;-65
2021/06/06 02:12:55;;;;;;;;;14.00;13.75;;;;;;;;3725025;37;20606;-65
2021/06/06 02:15:26;;;;;;;;;16.50;15.75;;;;;;;;3724875;37;20567;-65
2021/06/06 02:17:54;;;;;;;;;13.75;13.00;;;;;;;;3725203;37;20559;-64
2021/06/06 02:20:21;;;;;;;;;14.00;13.75;;;;;;;;3724692;37;20575;-64
2021/06/06 02:22:53;;;;;;;;;15.00;14.25;;;;;;;;3725011;37;20553;-64
2021/06/06 02:25:20;;;;;;;;;11.50;11.50;;;;;;;;3725070;37;20553;-65
2021/06/06 02:27:50;;;;;;;;;12.75;12.75;;;;;;;;3724781;37;20567;-65
2021/06/06 02:30:20;;;;;;;;;14.25;14.25;;;;;;;;3724797;38;20577;-66
2021/06/06 02:33:00;;;;;;;;;16.25;15.25;;;;;;;;3725152;37;20567;-65
2021/06/06 02:35:32;;;;;;;;;13.75;13.75;;;;;;;;3724598;38;20558;-67
2021/06/06 02:38:07;;;;;;;;;12.75;12.75;;;;;;;;3725082;38;20553;-66
2021/06/06 02:40:40;;;;;;;;;10.00;10.00;;;;;;;;3724659;37;20533;-66
2021/06/06 02:43:09;;;;;;;;;13.50;13.50;;;;;;;;3724786;37;20473;-67
2021/06/06 02:45:37;;;;;;;;;16.25;15.50;;;;;;;;3724961;38;20510;-67
2021/06/06 02:48:05;;;;;;;;;14.00;14.00;;;;;;;;3725011;37;20518;-67
2021/06/06 02:50:35;;;;;;;;;16.50;15.75;;;;;;;;3725089;38;20515;-67
2021/06/06 02:53:15;;;;;;;;;17.00;16.75;;;;;;;;3724944;38;20536;-67
2021/06/06 02:55:44;;;;;;;;;16.25;16.00;;;;;;;;3724754;38;20528;-66
2021/06/06 02:58:16;;;;;;;;;18.00;17.00;;;;;;;;3724696;37;20545;-66
2021/06/06 03:00:56;;;;;;;;;19.25;18.50;;;;;;;;3725033;37;20509;-66
2021/06/06 03:03:27;;;;;;;;;16.75;15.75;;;;;;;;3724743;38;20516;-66
2021/06/06 03:05:54;;;;;;;;;17.00;16.50;;;;;;;;3724875;38;20486;-66
2021/06/06 03:08:22;;;;;;;;;15.00;15.00;;;;;;;;3725277;37;20518;-66
2021/06/06 03:10:48;;;;;;;;;16.25;16.25;;;;;;;;3724865;37;20502;-67
2021/06/06 03:13:22;;;;;;;;;15.25;15.25;;;;;;;;3725238;38;20510;-65
2021/06/06 03:15:53;;;;;;;;;16.00;16.00;;;;;;;;3724807;38;20462;-66
2021/06/06 03:18:20;;;;;;;;;14.75;14.25;;;;;;;;3725173;37;20476;-66
2021/06/06 03:20:48;;;;;;;;;13.75;13.75;;;;;;;;3725393;38;20452;-67
2021/06/06 03:23:17;;;;;;;;;15.50;15.50;;;;;;;;3729320;38;20491;-68
2021/06/06 03:25:55;;;;;;;;;17.50;17.50;;;;;;;;3725452;37;20451;-67
2021/06/06 03:28:24;;;;;;;;;17.50;16.00;;;;;;;;3725406;38;20571;-68
2021/06/06 03:30:53;;;;;;;;;14.75;14.50;;;;;;;;3725561;37;20481;-71
2021/06/06 03:33:22;;;;;;;;;16.75;16.00;;;;;;;;3727143;38;20498;-68
2021/06/06 03:35:48;;;;;;;;;17.25;16.50;;;;;;;;3732769;38;20471;-66
2021/06/06 03:38:16;;;;;;;;;18.25;16.75;;;;;;;;3725978;37;20570;-70
2021/06/06 03:40:44;;;;;;;;;18.25;18.00;;;;;;;;3725025;37;20444;-70
2021/06/06 03:43:11;;;;;;;;;16.00;16.00;;;;;;;;3725153;37;20446;-68
2021/06/06 03:45:39;;;;;;;;;17.25;16.75;;;;;;;;3724757;37;20445;-68
2021/06/06 03:48:06;;;;;;;;;17.00;17.00;;;;;;;;3724953;37;20439;-69
2021/06/06 03:50:34;;;;;;;;;13.25;13.25;;;;;;;;3724877;37;20441;-67
2021/06/06 03:53:00;;;;;;;;;16.75;16.25;;;;;;;;3725227;38;20421;-67
2021/06/06 03:55:35;;;;;;;;;14.25;13.75;;;;;;;;3724920;37;20438;-69
2021/06/06 03:58:03;;;;;;;;;13.50;12.75;;;;;;;;3724909;37;18500;-66
2021/06/06 04:00:31;;;;;;;;;17.50;17.25;;;;;;;;3724755;37;20431;-67
2021/06/06 04:03:00;;;;;;;;;18.25;17.50;;;;;;;;3724829;38;20465;-69
2021/06/06 04:05:27;;;;;;;;;15.00;15.00;;;;;;;;3725375;37;20414;-68
2021/06/06 04:07:54;;;;;;;;;20.25;20.00;;;;;;;;3724949;38;20441;-67
2021/06/06 04:10:22;;;;;;;;;17.50;17.25;;;;;;;;3724815;38;20408;-68
2021/06/06 04:12:48;;;;;;;;;17.50;16.25;;;;;;;;3724916;37;20446;-68
2021/06/06 04:15:14;;;;;;;;;20.75;20.75;;;;;;;;3725403;38;20383;-70
2021/06/06 04:17:40;;;;;;;;;18.50;18.00;;;;;;;;3725129;38;18227;-67
2021/06/06 04:20:08;;;;;;;;;17.75;16.75;;;;;;;;3725017;37;20412;-68
2021/06/06 04:22:35;;;;;;;;;16.75;16.75;;;;;;;;3725240;37;20412;-68
2021/06/06 04:25:02;;;;;;;;;19.50;19.25;;;;;;;;3724966;38;20421;-70
2021/06/06 04:27:33;;;;;;;;;15.50;15.50;;;;;;;;3725405;38;20391;-69
2021/06/06 04:30:00;;;;;;;;;16.75;16.75;;;;;;;;3725043;37;20385;-68
2021/06/06 04:32:27;;;;;;;;;18.25;18.00;;;;;;;;3725261;37;20416;-69
2021/06/06 04:34:55;;;;;;;;;17.25;17.25;;;;;;;;3725275;37;20393;-69
2021/06/06 04:37:22;;;;;;;;;17.50;17.50;;;;;;;;3725139;38;18216;-71
2021/06/06 04:39:48;;;;;;;;;18.75;15.75;;;;;;;;3725211;37;20370;-70
2021/06/06 04:42:19;;;;;;;;;15.75;15.75;;;;;;;;3725011;38;20477;-70
2021/06/06 04:44:47;;;;;;;;;19.25;18.50;;;;;;;;3725186;38;20379;-71
2021/06/06 04:47:17;;;;;;;;;20.00;20.00;;;;;;;;3725015;38;20380;-68
2021/06/06 04:49:45;;;;;;;;;18.00;18.00;;;;;;;;3725309;37;20349;-68
2021/06/06 04:52:12;;;;;;;;;16.50;16.50;;;;;;;;3725229;38;20396;-67
2021/06/06 04:54:38;;;;;;;;;17.75;17.75;;;;;;;;3725468;38;20348;-68
2021/06/06 04:57:06;;;;;;;;;17.25;16.00;;;;;;;;3725847;37;20361;-67
2021/06/06 04:59:35;;;;;;;;;18.00;18.00;;;;;;;;3725525;37;20367;-67
2021/06/06 05:02:03;;;;;;;;;21.00;19.50;;;;;;;;3725085;38;20349;-68
2021/06/06 05:04:30;;;;;;;;;18.75;18.75;;;;;;;;3725083;38;20375;-68
2021/06/06 05:06:57;;;;;;;;;20.25;20.25;;;;;;;;3724792;37;20359;-68
2021/06/06 05:09:23;;;;;;;;;21.25;20.25;;;;;;;;3724827;37;20329;-68
2021/06/06 05:11:50;;;;;;;;;19.00;18.00;;;;;;;;3725058;37;20359;-68
2021/06/06 05:14:16;;;;;;;;;16.00;16.00;;;;;;;;3724915;37;20360;-68
2021/06/06 05:16:42;;;;;;;;;16.75;16.75;;;;;;;;3725832;37;20329;-69
2021/06/06 05:19:08;;;;;;;;;19.00;19.00;;;;;;;;3734311;38;18126;-70
2021/06/06 05:21:36;;;;;;;;;17.25;17.25;;;;;;;;3726799;38;20345;-68
2021/06/06 05:24:03;;;;;;;;;17.25;17.25;;;;;;;;3732509;37;18133;-69
2021/06/06 05:26:30;;;;;;;;;16.00;16.00;;;;;;;;3729310;38;20343;-69
2021/06/06 05:29:03;;;;;;;;;18.00;18.00;;;;;;;;3730499;37;20307;-69
2021/06/06 05:31:29;;;;;;;;;16.25;16.25;;;;;;;;3727087;38;20310;-68
2021/06/06 05:33:58;;;;;;;;;18.00;17.50;;;;;;;;3726206;38;20319;-70
2021/06/06 05:36:24;;;;;;;;;19.00;18.25;;;;;;;;3725148;37;20313;-70
2021/06/06 05:38:52;;;;;;;;;16.50;16.50;;;;;;;;3725417;37;20522;-69
2021/06/06 05:41:19;;;;;;;;;16.25;14.25;;;;;;;;3725199;38;20307;-62
2021/06/06 05:43:45;;;;;;;;;15.00;14.25;;;;;;;;3725315;37;20313;-63
2021/06/06 05:46:16;;;;;;;;;17.50;17.50;;;;;;;;3725356;37;20304;-62
2021/06/06 05:48:43;;;;;;;;;16.50;16.25;;;;;;;;3725222;38;20285;-63
2021/06/06 05:51:09;;;;;;;;;17.75;17.75;;;;;;;;3725329;37;20318;-66
2021/06/06 05:53:37;;;;;;;;;16.50;16.50;;;;;;;;3725190;38;20282;-62
2021/06/06 05:56:04;;;;;;;;;18.25;16.00;;;;;;;;3725196;37;20318;-63
2021/06/06 05:58:31;;;;;;;;;17.00;17.00;;;;;;;;3725368;37;20278;-66
2021/06/06 06:01:00;;;;;;;;;17.50;17.25;;;;;;;;3725145;38;20305;-63
2021/06/06 06:03:26;;;;;;;;;16.50;16.50;;;;;;;;3727612;38;20283;-67
2021/06/06 06:05:54;;;;;;;;;18.50;18.25;;;;;;;;3725746;38;20282;-64
2021/06/06 06:08:24;;;;;;;;;17.75;17.25;;;;;;;;3725527;38;20286;-67
2021/06/06 06:10:54;;;;;;;;;18.50;18.25;;;;;;;;3725273;38;20294;-65
2021/06/06 06:13:21;;;;;;;;;13.75;13.75;;;;;;;;3725085;37;20276;-62
2021/06/06 06:15:47;;;;;;;;;14.25;14.25;;;;;;;;3726361;38;20240;-66
2021/06/06 06:18:17;;;;;;;;;16.25;15.25;;;;;;;;3724930;37;20259;-65
2021/06/06 06:20:44;;;;;;;;;17.00;17.00;;;;;;;;3724884;37;20275;-69
2021/06/06 06:23:12;;;;;;;;;17.00;17.00;;;;;;;;3724864;38;20257;-67
2021/06/06 06:25:39;;;;;;;;;20.25;18.50;;;;;;;;3724770;37;20275;-68
2021/06/06 06:28:09;;;;;;;;;16.25;16.25;;;;;;;;3724710;38;20238;-75
2021/06/06 06:30:37;;;;;;;;;16.25;16.25;;;;;;;;3724606;38;20257;-72
2021/06/06 06:33:04;;;;;;;;;13.75;13.75;;;;;;;;3724143;38;20254;-68
2021/06/06 06:35:30;;;;;;;;;15.75;15.75;;;;;;;;3724588;37;20244;-67
2021/06/06 06:38:01;;;;;;;;;14.75;13.75;;;;;;;;3726091;37;20221;-67
2021/06/06 06:40:31;;;;;;;;;11.50;11.50;;;;;;;;3724637;38;18031;-67
2021/06/06 06:42:58;;;;;;;;;15.50;15.00;;;;;;;;3724497;37;20222;-63
2021/06/06 06:45:26;;;;;;;;;13.25;13.00;;;;;;;;3724399;38;20221;-65
2021/06/06 06:47:57;;;;;;;;;9.75;9.75;;;;;;;;3724569;38;18037;-65
2021/06/06 06:50:23;;;;;;;;;11.75;11.00;;;;;;;;3724362;37;20205;-63
2021/06/06 06:52:51;;;;;;;;;11.00;11.00;;;;;;;;3724922;37;20223;-64
2021/06/06 06:55:18;;;;;;;;;12.25;11.75;;;;;;;;3725815;37;20218;-63
2021/06/06 06:57:46;;;;;;;;;10.25;10.25;;;;;;;;3734840;37;20214;-66
2021/06/06 07:00:20;;;;;;;;;10.75;10.00;;;;;;;;3739861;37;20187;-64
2021/06/06 07:02:50;;;;;;;;;6.00;6.00;;;;;;;;3739782;38;20201;-63
2021/06/06 07:05:16;;;;;;;;;9.75;9.75;;;;;;;;3729925;37;20129;-65
2021/06/06 07:07:48;;;;;;;;;10.00;9.50;;;;;;;;3724601;38;20166;-62
2021/06/06 07:10:17;;;;;;;;;10.00;10.00;;;;;;;;3725182;38;17998;-64
2021/06/06 07:12:43;;;;;;;;;12.00;12.00;;;;;;;;3725294;38;20189;-64
2021/06/06 07:15:11;;;;;;;;;11.25;11.25;;;;;;;;3725319;38;20166;-63
2021/06/06 07:17:38;;;;;;;;;11.25;10.00;;;;;;;;3725372;38;17998;-64
2021/06/06 07:20:06;;;;;;;;;9.00;9.00;;;;;;;;3724854;37;20149;-68
2021/06/06 07:22:33;;;;;;;;;10.50;10.50;;;;;;;;3725068;38;20127;-70
2021/06/06 07:25:06;;;;;;;;;9.50;9.50;;;;;;;;3724819;38;20136;-64
2021/06/06 07:27:33;;;;;;;;;9.00;9.00;;;;;;;;3725232;38;20124;-69
2021/06/06 07:30:07;;;;;;;;;11.25;10.50;;;;;;;;3725456;38;20122;-65
2021/06/06 07:32:35;;;;;;;;;10.00;10.00;;;;;;;;3725745;37;20133;-65
2021/06/06 07:35:02;;;;;;;;;11.75;11.75;;;;;;;;3725107;38;20132;-64
2021/06/06 07:37:29;;;;;;;;;10.25;10.00;;;;;;;;3724823;37;20157;-65
2021/06/06 07:39:55;;;;;;;;;10.25;10.25;;;;;;;;3725486;37;20141;-64
2021/06/06 07:42:21;;;;;;;;;9.75;9.75;;;;;;;;3726063;37;20180;-63
2021/06/06 07:44:49;;;;;;;;;5.00;5.00;;;;;;;;3726495;37;17977;-63
2021/06/06 07:47:15;;;;;;;;;11.00;10.50;;;;;;;;3726624;37;20029;-63
2021/06/06 07:49:41;;;;;;;;;7.00;7.00;;;;;;;;3726485;37;17925;-64
2021/06/06 07:52:09;;;;;;;;;8.50;8.50;;;;;;;;3725636;38;17930;-64
2021/06/06 07:54:35;;;;;;;;;7.00;7.00;;;;;;;;3725389;37;20051;-63
2021/06/06 07:57:02;;;;;;;;;11.00;11.00;;;;;;;;3725431;38;20025;-63
2021/06/06 07:59:28;;;;;;;;;9.50;9.00;;;;;;;;3725079;38;17942;-64
2021/06/06 08:01:56;;;;;;;;;8.75;8.75;;;;;;;;3725270;38;20004;-64
2021/06/06 08:04:22;;;;;;;;;11.25;10.75;;;;;;;;3724698;37;20021;-63
2021/06/06 08:06:49;;;;;;;;;12.25;11.50;;;;;;;;3725248;37;20024;-65
2021/06/06 08:09:15;;;;;;;;;9.50;9.50;;;;;;;;3724501;37;20035;-68
2021/06/06 08:11:41;;;;;;;;;8.50;8.00;;;;;;;;3724257;37;20017;-67
2021/06/06 08:14:07;;;;;;;;;10.00;9.00;;;;;;;;3724634;37;17907;-69
2021/06/06 08:16:35;;;;;;;;;5.50;5.50;;;;;;;;3724623;38;20021;-64
2021/06/06 08:19:01;;;;;;;;;7.25;7.00;;;;;;;;3724715;37;17903;-64
2021/06/06 08:21:32;;;;;;;;;10.50;10.50;;;;;;;;3724790;38;19978;-62
2021/06/06 08:23:59;;;;;;;;;9.25;9.25;;;;;;;;3724440;37;20019;-64
2021/06/06 08:26:26;;;;;;;;;9.50;9.50;;;;;;;;3724516;38;20025;-69
2021/06/06 08:28:53;;;;;;;;;9.00;9.00;;;;;;;;3723886;38;20017;-63
2021/06/06 08:31:22;;;;;;;;;7.25;7.00;;;;;;;;3724517;38;19999;-64
2021/06/06 08:33:47;;;;;;;;;11.00;10.50;;;;;;;;3724517;37;20007;-64
2021/06/06 08:36:24;;;;;;;;;7.00;7.00;;;;;;;;3725004;37;20010;-64
2021/06/06 08:38:52;;;;;;;;;6.75;6.75;;;;;;;;3725214;38;17893;-64
2021/06/06 08:41:23;;;;;;;;;9.00;9.00;;;;;;;;3725184;38;19962;-64
2021/06/06 08:43:52;;;;;;;;;8.00;8.00;;;;;;;;3728418;37;19961;-64
2021/06/06 08:46:22;;;;;;;;;11.00;10.00;;;;;;;;3732748;38;20000;-63
2021/06/06 08:48:50;;;;;;;;;10.50;10.50;;;;;;;;3725375;37;20034;-66
2021/06/06 08:51:22;;;;;;;;;9.00;9.00;;;;;;;;3725206;37;20017;-64
2021/06/06 08:54:06;;;;;;;;;7.00;7.00;;;;;;;;3726429;38;20003;-64
2021/06/06 08:56:34;;;;;;;;;9.00;9.00;;;;;;;;3725676;37;20043;-64
2021/06/06 08:59:39;;;;;;;;;10.00;10.00;;;;;;;;3725519;37;19985;-66
2021/06/06 09:02:13;;;;;;;;;10.75;10.75;;;;;;;;3725631;38;19984;-65
2021/06/06 09:04:39;;;;;;;;;10.00;9.50;;;;;;;;3725732;37;20035;-64
2021/06/06 09:07:28;;;;;;;;;7.00;7.00;;;;;;;;3725956;37;19991;-63
2021/06/06 09:09:58;;;;;;;;;9.25;9.25;;;;;;;;3725634;38;20000;-65
2021/06/06 09:12:25;;;;;;;;;10.00;10.00;;;;;;;;3725501;38;19980;-64
2021/06/06 09:14:53;;;;;;;;;10.75;10.75;;;;;;;;3726130;37;20034;-63
2021/06/06 09:17:33;;;;;;;;;11.75;11.75;;;;;;;;3725531;38;20024;-65
2021/06/06 09:20:00;;;;;;;;;12.25;11.75;;;;;;;;3725395;37;20027;-65
2021/06/06 09:22:37;;;;;;;;;10.00;10.00;;;;;;;;3725828;37;20032;-65
2021/06/06 09:25:26;;;;;;;;;10.50;10.50;;;;;;;;3725269;37;20033;-66
2021/06/06 09:28:24;;;;;;;;;9.00;9.00;;;;;;;;3725587;38;20028;-65
2021/06/06 09:31:08;;;;;;;;;11.75;11.75;;;;;;;;3725181;37;19952;-66
2021/06/06 09:33:36;;;;;;;;;10.50;10.50;;;;;;;;3724993;37;20017;-67
2021/06/06 09:36:15;;;;;;;;;12.50;12.50;;;;;;;;3725572;37;19997;-67
2021/06/06 09:38:42;;;;;;;;;10.25;10.25;;;;;;;;3726833;38;19971;-64
2021/06/06 09:41:19;;;;;;;;;14.00;14.00;;;;;;;;3726208;38;20213;-64
2021/06/06 09:44:02;;;;;;;;;12.00;12.00;;;;;;;;3725186;38;19986;-65
2021/06/06 09:46:48;;;;;;;;;11.00;11.00;;;;;;;;3725257;37;19977;-65
2021/06/06 09:49:34;;;;;;;;;12.00;12.00;;;;;;;;3725815;37;19980;-64
2021/06/06 09:52:13;;;;;;;;;10.00;10.00;;;;;;;;3724988;38;19951;-65
2021/06/06 09:54:41;;;;;;;;;12.00;12.00;;;;;;;;3724989;37;20020;-64
2021/06/06 09:57:26;;;;;;;;;13.00;12.50;;;;;;;;3725149;37;19979;-65
2021/06/06 10:00:02;;;;;;;;;13.75;13.75;;;;;;;;3725495;38;19995;-64
2021/06/06 10:02:37;;;;;;;;;11.00;10.25;;;;;;;;3725224;37;19968;-64
2021/06/06 10:05:05;;;;;;;;;11.00;10.50;;;;;;;;3725384;38;19954;-64
2021/06/06 10:07:34;;;;;;;;;13.25;12.00;;;;;;;;3725068;38;19970;-64
2021/06/06 10:10:02;;;;;;;;;12.75;12.75;;;;;;;;3725284;38;19956;-64
2021/06/06 10:12:35;;;;;;;;;14.00;14.00;;;;;;;;3725389;37;19937;-63
2021/06/06 10:15:05;;;;;;;;;2.00;1.75;;;;;;;;3725455;37;19935;-65
2021/06/06 10:17:37;;;;;;;;;14.00;14.00;;;;;;;;3725535;38;19878;-64
2021/06/06 10:20:09;;;;;;;;;13.00;13.00;;;;;;;;3725266;37;19954;-63
2021/06/06 10:22:38;;;;;;;;;14.50;14.25;;;;;;;;3725416;38;19972;-65
2021/06/06 10:25:09;;;;;;;;;11.75;11.75;;;;;;;;3725632;37;19946;-64
2021/06/06 10:27:39;;;;;;;;;16.00;16.00;;;;;;;;3725557;37;19960;-66
2021/06/06 10:30:25;;;;;;;;;15.00;15.00;;;;;;;;3725211;38;19927;-65
2021/06/06 10:32:54;;;;;;;;;16.00;15.50;;;;;;;;3725177;38;19949;-66
2021/06/06 10:35:29;;;;;;;;;12.50;11.75;;;;;;;;3725189;38;19928;-64
2021/06/06 10:37:56;;;;;;;;;14.25;13.50;;;;;;;;3725037;37;19936;-65
2021/06/06 10:40:42;;;;;;;;;16.50;16.50;;;;;;;;3725057;38;20019;-63
2021/06/06 10:43:12;;;;;;;;;14.00;14.00;;;;;;;;3724603;37;19936;-64
2021/06/06 10:45:46;;;;;;;;;11.00;11.00;;;;;;;;3724980;38;19941;-65
2021/06/06 10:48:26;;;;;;;;;10.25;10.25;;;;;;;;3724977;38;19911;-65
2021/06/06 10:50:54;;;;;;;;;12.00;12.00;;;;;;;;3724949;38;19880;-63
2021/06/06 10:53:23;;;;;;;;;12.75;12.75;;;;;;;;3725155;37;19904;-62
2021/06/06 10:56:08;;;;;;;;;13.25;12.50;;;;;;;;3724771;37;19868;-63
2021/06/06 10:59:09;;;;;;;;;15.25;15.25;;;;;;;;3725108;37;19917;-64
2021/06/06 11:01:49;;;;;;;;;10.00;10.00;;;;;;;;3725157;37;19894;-64
2021/06/06 11:04:22;;;;;;;;;13.75;13.75;;;;;;;;3725078;37;19861;-64
2021/06/06 11:07:00;;;;;;;;;11.00;11.00;;;;;;;;3724725;37;19872;-63
2021/06/06 11:09:29;;;;;;;;;11.75;11.75;;;;;;;;3724613;37;19860;-61
2021/06/06 11:12:01;;;;;;;;;11.75;11.75;;;;;;;;3724572;38;19868;-64
2021/06/06 11:14:35;;;;;;;;;9.50;9.50;;;;;;;;3724736;38;19864;-66
2021/06/06 11:17:19;;;;;;;;;12.00;12.00;;;;;;;;3724632;38;19830;-62
2021/06/06 11:19:45;;;;;;;;;12.00;12.00;;;;;;;;3724562;38;19879;-61
2021/06/06 11:22:15;;;;;;;;;12.25;12.25;;;;;;;;3725018;37;19924;-63
2021/06/06 11:24:47;;;;;;;;;10.00;10.00;;;;;;;;3726850;37;19840;-62
2021/06/06 11:27:22;;;;;;;;;10.25;10.25;;;;;;;;3724910;37;19822;-64
2021/06/06 11:29:51;;;;;;;;;17.25;17.25;;;;;;;;3724606;37;19828;-65
2021/06/06 11:32:40;;;;;;;;;11.50;11.50;;;;;;;;3725119;37;19841;-62
2021/06/06 11:35:21;;;;;;;;;12.25;11.00;;;;;;;;3725164;37;19847;-65
2021/06/06 11:38:07;;;;;;;;;12.00;10.50;;;;;;;;3724957;37;19861;-64
2021/06/06 11:40:38;;;;;;;;;9.75;9.75;;;;;;;;3724999;37;19848;-65
2021/06/06 11:43:39;;;;;;;;;8.00;8.00;;;;;;;;3725092;37;19779;-64
2021/06/06 11:46:18;;;;;;;;;9.25;9.00;;;;;;;;3725160;37;19788;-66
2021/06/06 11:48:57;;;;;;;;;10.25;9.25;;;;;;;;3724813;37;19768;-65
2021/06/06 11:51:29;;;;;;;;;10.00;10.00;;;;;;;;3725449;37;19768;-65
2021/06/06 11:53:56;;;;;;;;;5.00;5.00;;;;;;;;3724863;37;19999;-65
2021/06/06 11:56:35;;;;;;;;;7.00;7.00;;;;;;;;3725484;37;19819;-62
2021/06/06 11:59:09;;;;;;;;;5.00;5.00;;;;;;;;3725120;38;19836;-61
2021/06/06 12:01:45;;;;;;;;;4.25;4.25;;;;;;;;3725053;38;19825;-63
2021/06/06 12:04:11;;;;;;;;;7.50;5.00;;;;;;;;3725177;37;19824;-62
2021/06/06 12:06:39;;;;;;;;;6.00;6.00;;;;;;;;3725100;38;19822;-60
2021/06/06 12:09:34;;;;;;;;;5.00;5.00;;;;;;;;3725139;37;19818;-63
2021/06/06 12:12:22;;;;;;;;;7.50;7.50;;;;;;;;3725074;38;19829;-62
2021/06/06 12:14:59;;;;;;;;;5.75;5.75;;;;;;;;3725357;37;19766;-62
2021/06/06 12:17:25;;;;;;;;;6.75;6.50;;;;;;;;3725046;37;19749;-63
2021/06/06 12:19:54;;;;;;;;;8.75;8.75;;;;;;;;3725053;38;19778;-61
2021/06/06 12:22:25;;;;;;;;;7.25;6.50;;;;;;;;3724940;37;19721;-61
2021/06/06 12:24:59;;;;;;;;;6.25;6.25;;;;;;;;3724680;37;19796;-62
2021/06/06 12:27:30;;;;;;;;;5.00;5.00;;;;;;;;3725315;37;19772;-61
2021/06/06 12:29:59;;;;;;;;;9.50;9.00;;;;;;;;3725116;38;19769;-63
2021/06/06 12:32:27;;;;;;;;;6.50;6.50;;;;;;;;3724599;38;19824;-60
2021/06/06 12:34:54;;;;;;;;;9.50;9.00;;;;;;;;3725285;37;19774;-62
2021/06/06 12:37:33;;;;;;;;;8.00;8.00;;;;;;;;3725766;37;19742;-62
2021/06/06 12:40:00;;;;;;;;;8.50;8.00;;;;;;;;3727044;37;19698;-60
2021/06/06 12:42:27;;;;;;;;;8.00;8.00;;;;;;;;3725398;38;19780;-63
2021/06/06 12:44:54;;;;;;;;;8.25;8.25;;;;;;;;3725113;38;19767;-62
2021/06/06 12:47:37;;;;;;;;;8.00;8.00;;;;;;;;3724737;37;19686;-62
2021/06/06 12:50:32;;;;;;;;;6.50;6.50;;;;;;;;3724895;37;19678;-63
2021/06/06 12:53:06;;;;;;;;;8.00;8.00;;;;;;;;3725178;37;19744;-62
2021/06/06 12:55:39;;;;;;;;;11.00;10.00;;;;;;;;3725188;38;19691;-60
2021/06/06 12:58:21;;;;;;;;;7.00;7.00;;;;;;;;3725082;37;19674;-64
2021/06/06 13:00:49;;;;;;;;;10.00;10.00;;;;;;;;3725140;37;19716;-62
2021/06/06 13:03:43;;;;;;;;;7.50;7.50;;;;;;;;3725148;38;19733;-63
2021/06/06 13:06:35;;;;;;;;;7.00;7.00;;;;;;;;3725197;38;19871;-63
2021/06/06 13:09:09;;;;;;;;;7.50;7.50;;;;;;;;3725101;37;19753;-62
2021/06/06 13:11:36;;;;;;;;;8.25;8.00;;;;;;;;3724968;37;19707;-61
2021/06/06 13:14:22;;;;;;;;;8.00;8.00;;;;;;;;3724966;38;19641;-62
2021/06/06 13:16:59;;;;;;;;;9.00;9.00;;;;;;;;3724944;37;19666;-62
2021/06/06 13:19:26;;;;;;;;;8.50;8.25;;;;;;;;3725148;37;19680;-61
2021/06/06 13:22:13;;;;;;;;;6.50;6.50;;;;;;;;3724566;38;19729;-63
2021/06/06 13:24:41;;;;;;;;;8.50;8.50;;;;;;;;3724565;38;20696;-62
2021/06/06 13:27:27;;;;;;;;;8.00;8.00;;;;;;;;3724705;38;19630;-62
2021/06/06 13:29:58;;;;;;;;;7.25;7.25;;;;;;;;3725077;37;19697;-62
2021/06/06 13:32:30;;;;;;;;;8.00;8.00;;;;;;;;3724995;37;19650;-62
2021/06/06 13:34:57;;;;;;;;;8.75;7.25;;;;;;;;3724575;38;19645;-62
2021/06/06 13:37:26;;;;;;;;;7.25;7.25;;;;;;;;3725057;38;20711;-62
2021/06/06 13:39:52;;;;;;;;;6.00;6.00;;;;;;;;3724785;38;20595;-62
2021/06/06 13:42:21;;;;;;;;;7.75;7.75;;;;;;;;3725012;38;20628;-63
2021/06/06 13:44:47;;;;;;;;;5.25;5.00;;;;;;;;3724878;37;20634;-62
2021/06/06 13:47:14;;;;;;;;;8.50;8.50;;;;;;;;3726249;38;20617;-62
2021/06/06 13:49:40;;;;;;;;;10.25;9.25;;;;;;;;3725199;38;18453;-63
2021/06/06 13:52:07;;;;;;;;;7.00;7.00;;;;;;;;3724957;37;20620;-63
2021/06/06 13:54:34;;;;;;;;;8.00;7.25;;;;;;;;3725088;37;20611;-61
2021/06/06 13:57:00;;;;;;;;;8.50;8.00;;;;;;;;3725141;37;20571;-62
2021/06/06 13:59:36;;;;;;;;;4.00;4.00;;;;;;;;3725312;37;20601;-62
2021/06/06 14:02:04;;;;;;;;;7.75;7.75;;;;;;;;3725103;38;20585;-62
2021/06/06 14:04:34;;;;;;;;;6.75;6.75;;;;;;;;3725202;37;20593;-61
2021/06/06 14:07:00;;;;;;;;;7.25;7.25;;;;;;;;3725517;37;20604;-61
2021/06/06 14:09:33;;;;;;;;;7.25;7.00;;;;;;;;3724982;37;20544;-61
2021/06/06 14:12:00;;;;;;;;;5.00;4.25;;;;;;;;3725107;38;20561;-61
2021/06/06 14:14:33;;;;;;;;;8.50;8.50;;;;;;;;3724934;38;20559;-63
2021/06/06 14:17:00;;;;;;;;;6.75;6.00;;;;;;;;3724468;38;20562;-61
2021/06/06 14:19:31;;;;;;;;;6.75;6.00;;;;;;;;3724428;37;20572;-62
2021/06/06 14:21:57;;;;;;;;;7.75;7.00;;;;;;;;3724635;37;20560;-62
2021/06/06 14:24:24;;;;;;;;;8.00;7.00;;;;;;;;3724897;37;20685;-62
2021/06/06 14:26:54;;;;;;;;;6.75;6.75;;;;;;;;3724955;38;20565;-62
2021/06/06 14:29:21;;;;;;;;;6.50;6.50;;;;;;;;3724804;37;20539;-64
2021/06/06 14:31:47;;;;;;;;;8.00;8.00;;;;;;;;3725005;38;20554;-62
2021/06/06 14:34:15;;;;;;;;;7.00;7.00;;;;;;;;3725001;38;20539;-61
2021/06/06 14:36:42;;;;;;;;;9.25;9.25;;;;;;;;3725404;38;20535;-62
2021/06/06 14:39:09;;;;;;;;;6.25;6.00;;;;;;;;3725104;38;20570;-61
2021/06/06 14:41:40;;;;;;;;;8.00;8.00;;;;;;;;3725146;38;18381;-62
2021/06/06 14:44:07;;;;;;;;;9.00;9.00;;;;;;;;3725170;38;20641;-62